Flight Track Log - Related Links

Times and Time Zones

All times are in EDT time to prevent confusion due to time zone crossing. See the N577K flight status page for this flight to view local times or setup timezone preferences in your user account.

Time Position Orientation Groundspeed Altitude Reporting Facility
EDT Latitude Longitude Course Direction KTS MPH feet Rate Location/Type
Sun 08:32:23 AM 40.0494 -78.9939 84° East 107 123 2,700  Level Cleveland Center
Sun 08:33:24 AM 40.0531 -78.9481 84° East 121 139 3,600 778 Climbing Cleveland Center
Sun 08:34:11 AM 40.0500 -78.9186 98° East 123 142 4,100 787 Climbing Cleveland Center
Sun 08:34:25 AM 40.0506 -78.9039 87° East 127 146 4,400 787 Climbing Cleveland Center
Sun 08:35:12 AM 40.0489 -78.8733 94° East 123 142 4,900 800 Climbing Cleveland Center
Sun 08:35:25 AM 40.0458 -78.8569 104° East 130 150 5,200 677 Climbing Cleveland Center
Sun 08:36:14 AM 40.0450 -78.8269 92° East 126 145 5,600 689 Climbing Cleveland Center
Sun 08:36:26 AM 40.0431 -78.8131 100° East 129 148 5,900 787 Climbing Cleveland Center
Sun 08:37:15 AM 40.0417 -78.7700 92° East 128 147 6,400 700 Climbing Cleveland Center
Sun 08:37:26 AM 40.0411 -78.7608 95° East 134 154 6,600 677 Climbing Cleveland Center
Sun 08:38:17 AM 40.0406 -78.7222 91° East 130 150 7,100 492 Climbing Cleveland Center
Sun 08:38:27 AM 40.0408 -78.7117 88° East 135 155 7,100  Level Cleveland Center
Sun 08:39:18 AM 40.0394 -78.6656 92° East 149 171 7,100  Level Cleveland Center
Sun 08:39:28 AM 40.0392 -78.6542 92° East 169 194 7,100  Level Cleveland Center
Sun 08:40:28 AM 40.0358 -78.5911 94° East 180 207 7,100  Level Cleveland Center
Sun 08:41:21 AM 40.0339 -78.5383 93° East 175 201 7,100  Level Cleveland Center
Sun 08:42:23 AM 40.0292 -78.4750 96° East 176 203 7,100  Level Cleveland Center
Sun 08:43:24 AM 40.0250 -78.3994 94° East 176 203 7,100  Level Cleveland Center
Sun 08:43:36 AM 40.0242 -78.3906 97° East 176 203 7,100  Level Cleveland Center
Sun 08:44:26 AM 40.0214 -78.3344 94° East 176 203 7,100  Level Cleveland Center
Sun 08:44:37 AM 40.0189 -78.3217 104° East 178 205 7,100  Level Cleveland Center
Sun 08:45:28 AM 40.0169 -78.2714 93° East 177 204 7,100 -54 Level Cleveland Center
Sun 08:46:29 AM 40.0117 -78.2017 96° East 177 204 7,000 -49 Descending Cleveland Center
Sun 08:47:31 AM 40.0072 -78.1381 95° East 177 204 7,000  Level Cleveland Center
Sun 08:48:32 AM 40.0036 -78.0739 94° East 177 204 7,000  Level Cleveland Center
Sun 08:49:34 AM 39.9994 -78.0106 95° East 177 204 7,000  Level Cleveland Center
Sun 08:50:35 AM 39.9944 -77.9461 96° East 177 204 7,000  Level Cleveland Center
Sun 08:51:37 AM 39.9903 -77.8825 95° East 177 204 7,000  Level Cleveland Center
Sun 08:52:39 AM 39.9861 -77.8181 95° East 177 204 7,000 -98 Level Cleveland Center
Sun 08:53:40 AM 39.9811 -77.7544 96° East 177 204 6,800 -390 Descending Cleveland Center
Sun 08:54:42 AM 39.9750 -77.6694 95° East 188 216 6,200 -532 Descending Cleveland Center
Sun 08:55:44 AM 39.9703 -77.5992 95° East 191 220 5,700 -488 Descending Cleveland Center
Sun 08:56:45 AM 39.9650 -77.5300 96° East 191 220 5,200 -488 Descending Cleveland Center
Sun 08:57:47 AM 39.9606 -77.4606 95° East 191 220 4,700 -484 Descending Cleveland Center
Sun 08:58:49 AM 39.9553 -77.3925 96° East 191 220 4,200 -435 Descending Cleveland Center
Sun 08:59:51 AM 39.9503 -77.3239 95° East 191 220 3,800 -341 Descending Cleveland Center
Sun 09:00:52 AM 39.9456 -77.2583 95° East 190 219 3,500 -341 Descending Cleveland Center
Sun 09:01:54 AM 39.9408 -77.1925 95° East 188 216 3,100 -387 Descending Cleveland Center

Login

Don't have an account? Register now (free) for customized features, flight alerts, and more!